Time;durP1;ratioP1;P1;durP2;ratioP2;P2;SDS_P1;SDS_P2;PMS_P1;PMS_P2;Temp;Humidity;BMP_temperature;BMP_pressure;BME280_temperature;BME280_humidity;BME280_pressure;Samples;Min_cycle;Max_cycle;Signal;HPM_P1;HPM_P2
2022/08/27 00:01:48;;;;;;;5.15;3.58;;;24.30;88.50;;;;;;4995054;28;20089;-76
2022/08/27 00:04:13;;;;;;;4.85;3.40;;;24.30;88.60;;;;;;4996035;28;20423;-75
2022/08/27 00:06:39;;;;;;;5.53;3.20;;;24.30;88.80;;;;;;4995336;28;20027;-75
2022/08/27 00:09:05;;;;;;;4.68;3.17;;;24.30;89.00;;;;;;4995693;28;20030;-76
2022/08/27 00:11:31;;;;;;;5.35;2.85;;;24.30;89.00;;;;;;4995121;28;20529;-76
2022/08/27 00:13:56;;;;;;;8.93;3.38;;;24.30;88.80;;;;;;4995409;28;20031;-76
2022/08/27 00:16:23;;;;;;;7.35;3.53;;;24.30;88.90;;;;;;4995445;28;20026;-76
2022/08/27 00:18:49;;;;;;;5.10;3.67;;;24.30;88.90;;;;;;4994953;28;20036;-76
2022/08/27 00:21:16;;;;;;;5.72;3.03;;;24.30;88.80;;;;;;4995611;28;20053;-75
2022/08/27 00:23:42;;;;;;;5.05;3.50;;;24.20;88.80;;;;;;4994959;28;20062;-75
2022/08/27 00:26:09;;;;;;;3.70;2.95;;;24.20;88.70;;;;;;4995295;28;20494;-75
2022/08/27 00:28:35;;;;;;;5.60;3.58;;;24.20;88.90;;;;;;4994781;28;20460;-76
2022/08/27 00:31:01;;;;;;;5.25;3.53;;;24.20;88.60;;;;;;4995618;28;20030;-75
2022/08/27 00:33:27;;;;;;;3.97;3.20;;;24.20;88.70;;;;;;4995075;28;20034;-75
2022/08/27 00:35:53;;;;;;;8.63;3.63;;;24.20;88.70;;;;;;4994808;28;20036;-75
2022/08/27 00:38:21;;;;;;;4.40;3.00;;;24.20;88.60;;;;;;4995026;28;20390;-75
2022/08/27 00:40:47;;;;;;;5.15;3.28;;;24.20;88.70;;;;;;4994639;28;20042;-75
2022/08/27 00:43:21;;;;;;;10.00;3.72;;;24.20;88.90;;;;;;4994860;28;20088;-75
2022/08/27 00:45:46;;;;;;;4.25;3.67;;;24.10;89.40;;;;;;4994668;28;20138;-75
2022/08/27 00:48:14;;;;;;;6.55;3.63;;;24.10;90.00;;;;;;4995120;28;20048;-75
2022/08/27 00:50:49;;;;;;;4.65;3.20;;;24.00;90.10;;;;;;4994541;28;20061;-75
2022/08/27 00:53:22;;;;;;;9.55;3.88;;;23.90;90.50;;;;;;4994872;28;20032;-75
2022/08/27 00:56:10;;;;;;;5.13;3.88;;;23.90;90.80;;;;;;4994341;28;20022;-76
2022/08/27 00:58:46;;;;;;;7.35;3.92;;;23.80;91.00;;;;;;5000982;28;20056;-75
2022/08/27 01:01:15;;;;;;;8.77;3.42;;;23.70;91.20;;;;;;5014164;28;20073;-75
2022/08/27 01:03:45;;;;;;;3.92;3.08;;;23.70;91.40;;;;;;5013859;28;20053;-76
2022/08/27 01:06:13;;;;;;;5.07;2.90;;;23.70;91.50;;;;;;5014210;28;20084;-75
2022/08/27 01:08:52;;;;;;;8.02;3.17;;;23.60;91.40;;;;;;5013451;28;20459;-76
2022/08/27 01:11:19;;;;;;;3.70;2.85;;;23.60;91.50;;;;;;5014086;28;20040;-74
2022/08/27 01:13:45;;;;;;;4.07;3.00;;;23.60;91.70;;;;;;5013698;28;20433;-73
2022/08/27 01:16:17;;;;;;;4.60;3.42;;;23.50;91.50;;;;;;5014006;28;20033;-74
2022/08/27 01:18:43;;;;;;;4.57;3.13;;;23.50;91.60;;;;;;5013656;28;20026;-74
2022/08/27 01:21:32;;;;;;;5.78;3.15;;;23.60;91.60;;;;;;5014289;28;20037;-76
2022/08/27 01:24:19;;;;;;;5.95;3.42;;;23.60;91.30;;;;;;5013536;28;20033;-75
2022/08/27 01:26:45;;;;;;;4.45;3.42;;;23.50;91.30;;;;;;5013475;28;20097;-74
2022/08/27 01:29:12;;;;;;;5.90;3.53;;;23.50;91.40;;;;;;5014287;28;20113;-74
2022/08/27 01:31:38;;;;;;;4.20;2.58;;;23.60;91.40;;;;;;5013409;28;20025;-74
2022/08/27 01:34:05;;;;;;;6.07;3.42;;;23.50;91.20;;;;;;5014066;28;20026;-75
2022/08/27 01:36:32;;;;;;;6.72;3.38;;;23.50;91.30;;;;;;5013606;28;20033;-75
2022/08/27 01:38:58;;;;;;;11.48;3.40;;;23.50;91.20;;;;;;5013190;28;20112;-74
2022/08/27 01:41:24;;;;;;;5.45;3.28;;;23.60;91.30;;;;;;5013544;28;20034;-75
2022/08/27 01:43:50;;;;;;;5.50;3.63;;;23.50;91.30;;;;;;5012690;28;20025;-74
2022/08/27 01:46:25;;;;;;;4.18;3.08;;;23.60;91.30;;;;;;5013385;28;20382;-75
2022/08/27 01:48:51;;;;;;;6.35;3.92;;;23.50;91.40;;;;;;4998626;28;20033;-75
2022/08/27 01:51:17;;;;;;;4.57;2.88;;;23.50;91.40;;;;;;4993806;28;20038;-75
2022/08/27 01:53:42;;;;;;;4.15;3.15;;;23.50;91.40;;;;;;4993273;28;20038;-75
2022/08/27 01:56:08;;;;;;;5.82;3.03;;;23.50;91.50;;;;;;4993764;28;20030;-75
2022/08/27 01:58:34;;;;;;;4.32;2.83;;;23.60;91.40;;;;;;4993807;28;20375;-75
2022/08/27 02:01:04;;;;;;;3.88;3.03;;;23.60;91.30;;;;;;4992862;28;20042;-75
2022/08/27 02:03:30;;;;;;;9.00;3.63;;;23.60;91.30;;;;;;4994007;28;20030;-75
2022/08/27 02:05:56;;;;;;;7.57;3.30;;;23.50;91.20;;;;;;4993522;28;20038;-75
2022/08/27 02:08:22;;;;;;;5.07;2.78;;;23.50;91.30;;;;;;4993526;28;20482;-75
2022/08/27 02:10:49;;;;;;;3.95;2.75;;;23.50;91.20;;;;;;4993083;28;20115;-75
2022/08/27 02:13:16;;;;;;;4.07;3.10;;;23.50;91.30;;;;;;4993275;28;20431;-74
2022/08/27 02:15:43;;;;;;;6.85;3.70;;;23.50;91.30;;;;;;4992834;28;20033;-74
2022/08/27 02:18:10;;;;;;;3.28;2.88;;;23.40;91.30;;;;;;4993669;28;20472;-74
2022/08/27 02:20:36;;;;;;;4.75;2.97;;;23.40;91.30;;;;;;4992965;28;20473;-74
2022/08/27 02:23:03;;;;;;;4.20;3.00;;;23.40;91.20;;;;;;4993123;28;20062;-74
2022/08/27 02:25:29;;;;;;;5.20;3.15;;;23.40;91.30;;;;;;4993249;28;20037;-74
2022/08/27 02:27:58;;;;;;;4.35;3.08;;;23.40;91.30;;;;;;4993286;28;20027;-74
2022/08/27 02:30:25;;;;;;;4.45;3.00;;;23.30;91.20;;;;;;4993322;28;20038;-75
2022/08/27 02:32:51;;;;;;;5.43;2.95;;;23.30;91.30;;;;;;4992611;28;20096;-74
2022/08/27 02:35:22;;;;;;;4.65;3.28;;;23.30;91.40;;;;;;4993304;28;20027;-75
2022/08/27 02:37:48;;;;;;;4.78;3.20;;;23.30;91.40;;;;;;4992906;28;20034;-75
2022/08/27 02:40:16;;;;;;;4.97;2.85;;;23.30;91.40;;;;;;4993072;28;20031;-75
2022/08/27 02:42:43;;;;;;;3.67;3.10;;;23.30;91.40;;;;;;4992527;28;20027;-75
2022/08/27 02:45:10;;;;;;;6.53;3.10;;;23.30;91.30;;;;;;4993170;28;20042;-75
2022/08/27 02:47:35;;;;;;;3.72;2.90;;;23.30;91.40;;;;;;4992935;28;20030;-75
2022/08/27 02:50:02;;;;;;;4.72;3.40;;;23.30;91.40;;;;;;4993009;28;20033;-75
2022/08/27 02:52:28;;;;;;;4.50;3.15;;;23.30;91.50;;;;;;4993185;28;20030;-75
2022/08/27 02:54:54;;;;;;;8.32;3.15;;;23.30;91.50;;;;;;4992601;28;20034;-74
2022/08/27 02:57:21;;;;;;;5.40;3.25;;;23.40;91.40;;;;;;4995195;28;20364;-75
2022/08/27 02:59:47;;;;;;;5.82;3.25;;;23.30;91.30;;;;;;4996555;28;20109;-75
2022/08/27 03:02:13;;;;;;;3.20;2.78;;;23.40;91.40;;;;;;4979452;28;20065;-75
2022/08/27 03:04:40;;;;;;;4.80;2.95;;;23.40;91.20;;;;;;4999045;28;20459;-74
2022/08/27 03:07:06;;;;;;;4.78;2.88;;;23.40;91.30;;;;;;4996764;28;20101;-74
2022/08/27 03:09:33;;;;;;;4.60;3.00;;;23.40;91.20;;;;;;4996506;28;20414;-75
2022/08/27 03:11:59;;;;;;;4.03;2.63;;;23.40;91.20;;;;;;4996302;28;20034;-74
2022/08/27 03:14:24;;;;;;;4.90;3.08;;;23.40;91.00;;;;;;4996639;28;20057;-75
2022/08/27 03:16:50;;;;;;;4.72;3.25;;;23.40;91.20;;;;;;4996505;28;20451;-74
2022/08/27 03:19:16;;;;;;;4.22;2.97;;;23.40;91.20;;;;;;4996481;28;20027;-75
2022/08/27 03:21:41;;;;;;;4.50;2.97;;;23.40;91.00;;;;;;4996173;28;20038;-77
2022/08/27 03:24:08;;;;;;;3.83;3.15;;;23.40;90.90;;;;;;4996643;28;20032;-74
2022/08/27 03:26:33;;;;;;;4.75;3.05;;;23.30;91.20;;;;;;4996272;28;20501;-75
2022/08/27 03:28:59;;;;;;;7.68;2.88;;;23.30;91.10;;;;;;4996326;28;20031;-76
2022/08/27 03:31:26;;;;;;;3.63;2.70;;;23.30;91.40;;;;;;4996257;28;20030;-76
2022/08/27 03:34:00;;;;;;;4.50;2.78;;;23.30;91.50;;;;;;4995870;28;20022;-76
2022/08/27 03:36:28;;;;;;;3.92;2.50;;;23.20;91.30;;;;;;4978930;28;20034;-76
2022/08/27 03:38:54;;;;;;;3.42;2.20;;;23.20;90.80;;;;;;4995881;28;20031;-76
2022/08/27 03:41:21;;;;;;;3.25;2.90;;;23.10;90.90;;;;;;4996114;28;20176;-76
2022/08/27 03:43:47;;;;;;;4.40;2.60;;;23.00;90.90;;;;;;4995767;28;20042;-76
2022/08/27 03:46:13;;;;;;;4.22;2.58;;;23.00;91.00;;;;;;4996021;28;20054;-76
2022/08/27 03:48:39;;;;;;;5.18;2.67;;;23.00;90.90;;;;;;4996028;28;20088;-75
2022/08/27 03:51:07;;;;;;;3.35;2.60;;;23.00;91.10;;;;;;4995481;28;20030;-76
2022/08/27 03:53:34;;;;;;;4.43;2.88;;;23.00;91.10;;;;;;4996182;28;20031;-76
2022/08/27 03:56:00;;;;;;;6.82;2.40;;;23.00;91.20;;;;;;4997687;28;20045;-75
2022/08/27 03:58:26;;;;;;;5.22;2.35;;;23.00;91.10;;;;;;4995760;28;20451;-76
2022/08/27 04:00:52;;;;;;;4.40;2.97;;;22.90;91.40;;;;;;4995317;28;20038;-74
2022/08/27 04:03:17;;;;;;;4.25;2.75;;;22.90;91.40;;;;;;4995799;28;20030;-75
2022/08/27 04:05:43;;;;;;;4.43;2.70;;;22.90;91.20;;;;;;4995744;28;20081;-74
2022/08/27 04:08:09;;;;;;;3.75;2.85;;;22.90;91.30;;;;;;4994398;28;20041;-75
2022/08/27 04:10:39;;;;;;;6.30;2.50;;;22.90;91.70;;;;;;4995669;28;20531;-74
2022/08/27 04:13:05;;;;;;;6.37;2.60;;;22.80;91.80;;;;;;4995315;28;20351;-76
2022/08/27 04:15:31;;;;;;;5.53;2.38;;;22.90;91.80;;;;;;4995336;28;20295;-75
2022/08/27 04:17:56;;;;;;;9.60;2.88;;;22.90;91.70;;;;;;4995090;28;20089;-76
2022/08/27 04:20:22;;;;;;;5.07;2.95;;;22.90;91.60;;;;;;4995231;28;20050;-76
2022/08/27 04:22:48;;;;;;;5.22;2.75;;;22.80;91.90;;;;;;4994944;28;20027;-75
2022/08/27 04:25:13;;;;;;;3.90;2.67;;;22.80;91.90;;;;;;4995136;28;20037;-75
2022/08/27 04:27:39;;;;;;;5.18;2.60;;;22.80;92.10;;;;;;4994941;28;20113;-75
2022/08/27 04:30:08;;;;;;;5.18;3.08;;;22.80;92.60;;;;;;4994917;28;20030;-75
2022/08/27 04:32:34;;;;;;;3.17;2.40;;;22.80;92.70;;;;;;4994945;28;20034;-74
2022/08/27 04:35:00;;;;;;;5.85;2.95;;;22.70;92.60;;;;;;4994416;28;20076;-75
2022/08/27 04:37:29;;;;;;;5.97;3.63;;;22.70;92.80;;;;;;4994888;28;20022;-75
2022/08/27 04:39:55;;;;;;;3.10;2.55;;;22.70;92.70;;;;;;4994414;28;20026;-74
2022/08/27 04:42:20;;;;;;;3.97;2.53;;;22.70;92.70;;;;;;4995033;28;20494;-74
2022/08/27 04:44:47;;;;;;;5.15;2.83;;;22.80;92.80;;;;;;4994851;28;20513;-76
2022/08/27 04:47:13;;;;;;;4.93;2.72;;;22.80;93.00;;;;;;4994536;28;20038;-76
2022/08/27 04:49:40;;;;;;;4.20;2.63;;;22.70;93.00;;;;;;4995055;28;20117;-76
2022/08/27 04:52:05;;;;;;;7.20;3.17;;;22.70;93.10;;;;;;4994629;28;20030;-75
2022/08/27 04:54:31;;;;;;;4.80;2.90;;;22.70;93.60;;;;;;4994584;28;20022;-76
2022/08/27 04:56:57;;;;;;;3.40;2.50;;;22.70;93.60;;;;;;4994493;28;20049;-74
2022/08/27 04:59:23;;;;;;;4.28;2.45;;;22.70;93.70;;;;;;4994529;28;20479;-74
2022/08/27 05:01:49;;;;;;;3.90;2.67;;;22.70;93.90;;;;;;4994371;28;20515;-77
2022/08/27 05:04:17;;;;;;;5.22;2.60;;;22.70;93.70;;;;;;4994643;28;20452;-74
2022/08/27 05:06:44;;;;;;;4.47;2.83;;;22.70;93.70;;;;;;4994568;28;20383;-75
2022/08/27 05:09:11;;;;;;;3.78;2.60;;;22.70;94.00;;;;;;5003224;28;20072;-76
2022/08/27 05:11:37;;;;;;;4.93;2.92;;;22.70;93.80;;;;;;5014021;28;20069;-75
2022/08/27 05:14:08;;;;;;;4.55;3.00;;;22.70;93.80;;;;;;5013637;28;20029;-76
2022/08/27 05:16:35;;;;;;;4.75;3.22;;;22.70;93.70;;;;;;5014090;28;20033;-76
2022/08/27 05:19:02;;;;;;;4.65;2.83;;;22.70;93.80;;;;;;5012374;28;20387;-76
2022/08/27 05:21:31;;;;;;;4.70;2.55;;;22.70;94.00;;;;;;5013875;28;20562;-76
2022/08/27 05:24:00;;;;;;;4.25;2.92;;;22.70;93.90;;;;;;5013752;28;20030;-76
2022/08/27 05:26:27;;;;;;;4.30;3.03;;;22.70;93.90;;;;;;5013523;28;20517;-76
2022/08/27 05:28:52;;;;;;;5.88;3.30;;;22.70;94.40;;;;;;5013372;28;20371;-77
2022/08/27 05:31:20;;;;;;;6.32;3.42;;;22.70;94.60;;;;;;5013796;28;20037;-76
2022/08/27 05:33:47;;;;;;;4.63;3.65;;;22.80;94.40;;;;;;5013752;28;20022;-75
2022/08/27 05:36:19;;;;;;;4.60;3.17;;;22.80;94.20;;;;;;5013365;28;20080;-76
2022/08/27 05:38:48;;;;;;;5.10;2.90;;;22.80;94.20;;;;;;5013584;28;20037;-75
2022/08/27 05:41:17;;;;;;;5.65;3.40;;;22.90;94.20;;;;;;5013099;28;20451;-76
2022/08/27 05:43:44;;;;;;;4.07;3.00;;;23.00;94.00;;;;;;5013681;28;20038;-76
2022/08/27 05:46:13;;;;;;;8.23;3.20;;;23.00;94.00;;;;;;5013242;28;20038;-76
2022/08/27 05:48:40;;;;;;;4.85;3.53;;;23.10;93.70;;;;;;5013518;28;20360;-76
2022/08/27 05:51:12;;;;;;;5.35;3.38;;;23.20;93.60;;;;;;5012908;28;20166;-75
2022/08/27 05:53:38;;;;;;;4.13;3.55;;;23.30;93.30;;;;;;4997543;28;20038;-76
2022/08/27 05:56:04;;;;;;;8.23;3.58;;;23.30;93.40;;;;;;4993395;28;20439;-76
2022/08/27 06:01:19;;;;;;;7.55;3.60;;;23.50;93.00;;;;;;4993174;28;20061;-76
2022/08/27 06:03:45;;;;;;;;;;;23.60;92.40;;;;;;4994199;28;20062;-76
2022/08/27 06:06:11;;;;;;;5.10;3.60;;;23.70;92.60;;;;;;4993111;28;19913;-76
2022/08/27 06:08:37;;;;;;;7.10;3.47;;;24.00;92.00;;;;;;4993448;28;20027;-76
2022/08/27 06:11:05;;;;;;;4.30;3.22;;;24.30;91.60;;;;;;4993187;28;20030;-75
2022/08/27 06:13:33;;;;;;;3.17;2.67;;;24.50;90.70;;;;;;4993420;28;20475;-75
2022/08/27 06:16:04;;;;;;;5.05;2.90;;;24.60;89.50;;;;;;4993031;28;20197;-76
2022/08/27 06:18:31;;;;;;;6.07;3.00;;;24.80;88.70;;;;;;4993384;28;20038;-75
2022/08/27 06:20:57;;;;;;;3.58;2.92;;;24.90;86.80;;;;;;4993136;28;20073;-75
2022/08/27 06:23:23;;;;;;;3.90;2.58;;;25.00;86.00;;;;;;4993512;28;20427;-75
2022/08/27 06:25:48;;;;;;;4.53;2.50;;;25.20;84.60;;;;;;4993174;28;20049;-74
2022/08/27 06:28:14;;;;;;;3.92;3.00;;;25.20;83.00;;;;;;4992576;28;20027;-75
2022/08/27 06:30:40;;;;;;;3.20;2.70;;;25.30;82.50;;;;;;4993286;28;20398;-75
2022/08/27 06:33:06;;;;;;;3.85;2.63;;;25.30;82.10;;;;;;4992614;28;20038;-75
2022/08/27 06:35:34;;;;;;;3.35;2.60;;;25.40;81.30;;;;;;4975866;28;20468;-74
2022/08/27 06:37:59;;;;;;;3.58;2.05;;;25.50;80.80;;;;;;4992767;28;20026;-75
2022/08/27 06:40:25;;;;;;;5.63;2.85;;;25.60;80.50;;;;;;4992879;28;20475;-74
2022/08/27 06:42:51;;;;;;;3.53;2.65;;;25.70;78.90;;;;;;4993089;28;20045;-75
2022/08/27 06:45:17;;;;;;;4.82;3.10;;;26.00;79.10;;;;;;4992728;28;20038;-73
2022/08/27 06:47:43;;;;;;;8.55;3.35;;;26.20;79.10;;;;;;4992907;28;20379;-74
2022/08/27 06:50:08;;;;;;;5.53;3.00;;;26.40;81.10;;;;;;4992452;28;20027;-76
2022/08/27 06:52:34;;;;;;;4.05;2.78;;;26.60;81.20;;;;;;4993019;28;20030;-74
2022/08/27 06:55:00;;;;;;;7.65;3.00;;;27.00;80.00;;;;;;4992438;28;20156;-76
2022/08/27 06:57:25;;;;;;;4.32;2.72;;;27.40;78.10;;;;;;4992715;28;20499;-75
2022/08/27 06:59:51;;;;;;;3.83;2.50;;;27.90;77.10;;;;;;4993174;28;20041;-74
2022/08/27 07:02:17;;;;;;;3.03;2.50;;;28.20;72.00;;;;;;4992263;28;20114;-74
2022/08/27 07:04:42;;;;;;;4.47;2.92;;;28.70;72.50;;;;;;4992814;28;20452;-74
2022/08/27 07:07:10;;;;;;;3.13;2.50;;;29.10;70.10;;;;;;4992217;28;20038;-75
2022/08/27 07:09:36;;;;;;;2.60;2.00;;;29.60;67.00;;;;;;4995367;28;20451;-73
2022/08/27 07:12:02;;;;;;;4.72;2.65;;;30.20;64.40;;;;;;4974896;28;20028;-74
2022/08/27 07:14:29;;;;;;;3.05;2.55;;;31.20;62.10;;;;;;4992358;28;20429;-74
2022/08/27 07:16:55;;;;;;;3.05;2.58;;;32.10;58.30;;;;;;4992865;28;20050;-74
2022/08/27 07:19:20;;;;;;;3.55;2.17;;;32.80;57.00;;;;;;4992106;28;20089;-74
2022/08/27 07:21:47;;;;;;;3.60;2.42;;;33.60;54.60;;;;;;4992671;28;20030;-75
2022/08/27 07:24:12;;;;;;;3.35;2.30;;;34.20;53.20;;;;;;4992657;28;20066;-75
2022/08/27 07:26:41;;;;;;;3.28;2.63;;;34.60;51.30;;;;;;4992608;28;20061;-75
2022/08/27 07:29:09;;;;;;;4.47;2.40;;;35.10;50.30;;;;;;4992177;28;20037;-76
2022/08/27 07:31:35;;;;;;;4.38;2.42;;;35.50;48.10;;;;;;4992670;28;20077;-75
2022/08/27 07:34:02;;;;;;;4.68;2.50;;;35.20;48.00;;;;;;4992285;28;20042;-76
2022/08/27 07:36:28;;;;;;;3.63;2.17;;;35.50;47.40;;;;;;4992907;28;20034;-74
2022/08/27 07:38:53;;;;;;;3.08;2.45;;;36.10;46.20;;;;;;4992308;28;20367;-75
2022/08/27 07:41:19;;;;;;;3.42;2.50;;;36.70;45.50;;;;;;4992199;28;20041;-76
2022/08/27 07:46:29;;;;;;;5.28;2.28;;;37.20;44.90;;;;;;4996054;28;20395;-75
2022/08/27 07:48:56;;;;;;;2.00;1.80;;;37.60;43.00;;;;;;4995772;28;20030;-75
2022/08/27 07:51:23;;;;;;;3.67;2.35;;;37.70;43.20;;;;;;4995417;28;20038;-75
2022/08/27 07:53:50;;;;;;;3.35;2.30;;;38.10;42.20;;;;;;4995825;28;20460;-75
2022/08/27 07:56:15;;;;;;;2.53;2.13;;;37.90;41.80;;;;;;4995439;28;20379;-76
2022/08/27 07:58:42;;;;;;;7.30;2.20;;;38.20;41.10;;;;;;4996200;28;20094;-75
2022/08/27 08:01:07;;;;;;;2.92;1.92;;;37.60;41.00;;;;;;4997698;28;20053;-75
2022/08/27 08:03:33;;;;;;;3.15;2.50;;;37.30;42.70;;;;;;4995342;28;20120;-76
2022/08/27 08:06:08;;;;;;;2.97;2.08;;;37.30;41.70;;;;;;4995505;28;20177;-75
2022/08/27 08:08:35;;;;;;;2.80;2.15;;;36.90;41.70;;;;;;4995928;28;20032;-75
2022/08/27 08:11:02;;;;;;;2.30;2.05;;;36.40;42.80;;;;;;4995562;28;20113;-75
2022/08/27 08:13:29;;;;;;;3.05;2.08;;;36.70;42.80;;;;;;4995223;28;20526;-75
2022/08/27 08:15:56;;;;;;;2.75;2.40;;;37.00;42.70;;;;;;4995429;28;20026;-74
2022/08/27 08:18:21;;;;;;;3.53;2.13;;;36.90;42.30;;;;;;4994797;28;20026;-73
2022/08/27 08:20:47;;;;;;;5.18;2.70;;;37.50;41.80;;;;;;4994941;28;20121;-74
2022/08/27 08:23:14;;;;;;;3.78;2.40;;;37.50;41.00;;;;;;4994968;28;20058;-74
2022/08/27 08:25:40;;;;;;;2.15;1.80;;;38.00;40.80;;;;;;4995645;28;20034;-74
2022/08/27 08:28:06;;;;;;;2.80;1.95;;;38.50;40.70;;;;;;4994967;28;20041;-75
2022/08/27 08:30:32;;;;;;;2.95;2.28;;;39.00;39.70;;;;;;4995173;28;20061;-74
2022/08/27 08:32:58;;;;;;;3.90;2.60;;;39.30;39.50;;;;;;4995156;28;20053;-74
2022/08/27 08:35:23;;;;;;;6.38;2.50;;;39.50;38.90;;;;;;4994658;28;20022;-74
2022/08/27 08:37:49;;;;;;;3.42;2.10;;;39.90;38.40;;;;;;4995220;28;20387;-73
2022/08/27 08:40:40;;;;;;;3.50;2.30;;;40.00;38.10;;;;;;4977037;28;20065;-75
2022/08/27 08:43:11;;;;;;;3.28;2.30;;;39.70;37.20;;;;;;4994671;28;20109;-77
2022/08/27 08:45:39;;;;;;;3.60;2.63;;;38.60;38.40;;;;;;4995078;28;20022;-76
2022/08/27 08:48:13;;;;;;;3.28;2.60;;;38.70;38.00;;;;;;4994984;28;20053;-75
2022/08/27 08:51:01;;;;;;;2.70;2.35;;;38.70;38.10;;;;;;4994900;28;20061;-75
2022/08/27 08:53:51;;;;;;;2.90;2.60;;;37.90;39.90;;;;;;4994239;28;20050;-75
2022/08/27 08:56:29;;;;;;;2.42;2.20;;;37.80;40.30;;;;;;4994262;28;20026;-74
2022/08/27 08:59:13;;;;;;;6.03;2.70;;;37.10;40.10;;;;;;4994699;28;20091;-74
2022/08/27 09:01:45;;;;;;;4.30;2.90;;;35.80;42.00;;;;;;4994584;28;20034;-74
2022/08/27 09:04:11;;;;;;;3.10;2.50;;;35.30;43.80;;;;;;4994325;28;20030;-75
2022/08/27 09:06:57;;;;;;;3.38;2.67;;;34.70;44.40;;;;;;4994456;28;20555;-75
2022/08/27 09:09:32;;;;;;;4.72;2.40;;;34.30;44.90;;;;;;4994125;28;20034;-75
2022/08/27 09:11:59;;;;;;;5.90;2.80;;;33.70;45.80;;;;;;4994628;28;20491;-74
2022/08/27 09:14:43;;;;;;;3.85;2.60;;;33.20;47.50;;;;;;4993882;28;20081;-74
2022/08/27 09:17:08;;;;;;;2.92;2.47;;;32.70;48.70;;;;;;4993969;28;20101;-74
2022/08/27 09:19:34;;;;;;;3.92;2.72;;;32.10;49.40;;;;;;4997801;28;20116;-76
2022/08/27 09:22:19;;;;;;;2.47;2.28;;;31.70;50.00;;;;;;5013857;28;20030;-73
2022/08/27 09:25:13;;;;;;;2.50;2.30;;;31.40;50.30;;;;;;5013662;28;20028;-74
2022/08/27 09:27:41;;;;;;;4.38;2.60;;;31.20;51.60;;;;;;5013818;28;20050;-74
2022/08/27 09:30:11;;;;;;;4.57;2.83;;;31.30;52.60;;;;;;4996244;28;20406;-75
2022/08/27 09:32:38;;;;;;;4.03;2.63;;;31.10;52.30;;;;;;4996276;28;20453;-74
2022/08/27 09:35:07;;;;;;;3.72;2.70;;;31.00;52.00;;;;;;5013443;28;20452;-73
2022/08/27 09:37:40;;;;;;;3.90;2.50;;;30.80;53.10;;;;;;5013001;28;20034;-74
2022/08/27 09:40:26;;;;;;;4.35;2.75;;;30.90;52.40;;;;;;5013245;28;20038;-75
2022/08/27 09:43:07;;;;;;;4.15;2.90;;;30.90;52.80;;;;;;5013410;28;20026;-74
2022/08/27 09:45:33;;;;;;;5.63;3.08;;;30.80;54.10;;;;;;4995322;28;20026;-74
2022/08/27 09:48:08;;;;;;;5.22;2.97;;;30.70;54.00;;;;;;5013268;28;20026;-74
2022/08/27 09:50:46;;;;;;;4.00;3.05;;;30.70;54.60;;;;;;5012907;28;20059;-76
2022/08/27 09:53:27;;;;;;;4.07;3.20;;;30.70;54.40;;;;;;4995747;28;20474;-75
2022/08/27 09:56:06;;;;;;;3.67;2.78;;;30.70;54.40;;;;;;4993592;28;20034;-74
2022/08/27 09:58:52;;;;;;;5.05;3.00;;;30.60;55.40;;;;;;4992717;28;20415;-75
2022/08/27 10:01:27;;;;;;;3.65;2.90;;;30.60;55.30;;;;;;4993054;28;20031;-75
2022/08/27 10:04:34;;;;;;;3.72;3.00;;;30.50;55.40;;;;;;4993623;28;20031;-74
2022/08/27 10:07:20;;;;;;;2.70;2.50;;;30.60;56.30;;;;;;4954554;28;20041;-74
2022/08/27 10:09:55;;;;;;;3.03;2.70;;;30.70;56.00;;;;;;4993602;28;20030;-74
2022/08/27 10:12:57;;;;;;;3.72;2.90;;;30.70;55.80;;;;;;4992811;28;20463;-74
2022/08/27 10:15:44;;;;;;;4.80;2.97;;;30.70;55.10;;;;;;4975357;28;20104;-76
2022/08/27 10:18:25;;;;;;;3.63;2.75;;;30.60;54.30;;;;;;4993345;28;20026;-74
2022/08/27 10:21:01;;;;;;;6.07;3.10;;;30.40;54.60;;;;;;4993333;28;20122;-74
2022/08/27 10:23:40;;;;;;;4.05;3.22;;;30.40;55.10;;;;;;4993342;28;20069;-75
2022/08/27 10:26:56;;;;;;;4.38;3.30;;;30.30;55.60;;;;;;4993282;28;20368;-75
2022/08/27 10:29:49;;;;;;;3.30;2.47;;;30.20;55.10;;;;;;4913720;29;20100;-75
2022/08/27 10:32:25;;;;;;;6.15;3.60;;;30.20;54.90;;;;;;4913778;29;20032;-75
2022/08/27 10:35:15;;;;;;;4.40;3.30;;;30.20;55.20;;;;;;4913903;29;20079;-74
2022/08/27 10:38:09;;;;;;;4.30;2.97;;;30.30;56.40;;;;;;4913801;29;20032;-75
2022/08/27 10:40:58;;;;;;;4.45;3.03;;;30.30;56.70;;;;;;4913467;29;20095;-75
2022/08/27 10:43:44;;;;;;;4.97;2.95;;;30.20;57.20;;;;;;4913491;29;20071;-75
2022/08/27 10:46:37;;;;;;;4.70;2.92;;;30.20;57.40;;;;;;4914064;29;20385;-75
2022/08/27 10:49:18;;;;;;;3.80;3.20;;;30.20;57.00;;;;;;4913929;29;20044;-74
2022/08/27 10:51:57;;;;;;;3.88;3.38;;;30.20;57.00;;;;;;4914213;29;20036;-75
2022/08/27 10:54:38;;;;;;;3.30;3.00;;;30.20;57.00;;;;;;4897573;29;20032;-74
2022/08/27 10:57:22;;;;;;;;;;;30.10;54.70;;;;;;4914209;29;20055;-75
2022/08/27 11:00:06;;;;;;;4.88;3.22;;;30.10;54.10;;;;;;4948773;28;19912;-74
2022/08/27 11:02:40;;;;;;;3.80;2.97;;;30.20;54.50;;;;;;4992398;28;20119;-74
2022/08/27 11:05:20;;;;;;;5.80;3.20;;;30.30;54.00;;;;;;4992796;28;20111;-74
2022/08/27 11:07:55;;;;;;;3.78;2.72;;;30.30;53.50;;;;;;4993105;28;20030;-76
2022/08/27 11:10:26;;;;;;;3.15;2.50;;;30.30;53.70;;;;;;4992315;28;20062;-76
2022/08/27 11:12:57;;;;;;;5.78;2.83;;;30.50;54.30;;;;;;4975301;28;20027;-74
2022/08/27 11:15:30;;;;;;;5.38;3.13;;;30.60;54.30;;;;;;4992851;28;20109;-75
2022/08/27 11:18:09;;;;;;;6.35;2.65;;;30.80;54.50;;;;;;4994386;28;20054;-75
2022/08/27 11:20:59;;;;;;;2.70;2.33;;;31.00;54.30;;;;;;4980557;28;20042;-74
2022/08/27 11:23:48;;;;;;;2.80;2.50;;;31.10;53.30;;;;;;4996153;28;20018;-75
2022/08/27 11:26:14;;;;;;;5.50;2.95;;;31.20;52.80;;;;;;4996497;28;20128;-75
2022/08/27 11:28:41;;;;;;;3.92;3.15;;;31.30;54.10;;;;;;4996021;28;20049;-75
2022/08/27 11:31:35;;;;;;;4.35;2.67;;;31.30;53.10;;;;;;4996592;28;20034;-75
2022/08/27 11:34:16;;;;;;;3.78;2.67;;;31.50;53.80;;;;;;4996392;28;20037;-75
2022/08/27 11:37:08;;;;;;;5.25;3.00;;;31.60;53.40;;;;;;4995703;28;20030;-75
2022/08/27 11:40:17;;;;;;;4.97;2.80;;;31.70;53.20;;;;;;4995876;28;20081;-75
2022/08/27 11:42:50;;;;;;;4.82;3.20;;;31.80;52.40;;;;;;4978092;28;20162;-75
2022/08/27 11:45:18;;;;;;;6.38;3.58;;;31.80;51.60;;;;;;4996234;28;20049;-75
2022/08/27 11:47:59;;;;;;;5.75;3.25;;;31.80;51.60;;;;;;4981003;28;20093;-75
2022/08/27 11:50:27;;;;;;;4.25;3.05;;;31.80;52.40;;;;;;4995599;28;20026;-75
2022/08/27 11:53:04;;;;;;;4.95;2.85;;;31.90;52.00;;;;;;4995840;28;20030;-74
2022/08/27 11:55:38;;;;;;;7.20;2.78;;;31.80;51.30;;;;;;4995532;28;20482;-75
2022/08/27 11:58:25;;;;;;;6.47;3.25;;;31.80;51.40;;;;;;4996026;28;20041;-75
2022/08/27 12:00:52;;;;;;;3.40;2.78;;;31.80;51.40;;;;;;4995503;28;20456;-75
2022/08/27 12:03:18;;;;;;;4.80;3.22;;;31.70;51.80;;;;;;4995677;28;20030;-75
2022/08/27 12:06:07;;;;;;;3.70;2.67;;;31.60;51.80;;;;;;4995005;28;20030;-75
2022/08/27 12:08:34;;;;;;;4.82;3.03;;;31.60;52.30;;;;;;4995286;28;20022;-75
2022/08/27 12:11:26;;;;;;;5.47;3.33;;;31.50;52.30;;;;;;4977971;28;20065;-74
2022/08/27 12:14:23;;;;;;;3.28;2.80;;;31.50;52.70;;;;;;4995607;28;20113;-75
2022/08/27 12:16:54;;;;;;;4.47;3.00;;;31.50;52.30;;;;;;4995853;28;20027;-74
2022/08/27 12:19:46;;;;;;;3.50;3.03;;;31.50;52.10;;;;;;4995296;28;20105;-73
2022/08/27 12:22:21;;;;;;;4.72;3.13;;;31.60;52.40;;;;;;4994632;28;20491;-75
2022/08/27 12:24:52;;;;;;;2.75;2.38;;;31.60;52.60;;;;;;4995571;28;20045;-75
2022/08/27 12:27:21;;;;;;;4.13;3.05;;;31.50;53.10;;;;;;4995363;28;20034;-74
2022/08/27 12:29:56;;;;;;;5.88;3.10;;;31.50;52.70;;;;;;4994641;28;20023;-74
2022/08/27 12:32:43;;;;;;;3.53;2.45;;;31.50;52.60;;;;;;4994848;28;20407;-77
2022/08/27 12:35:29;;;;;;;3.33;2.72;;;31.50;52.20;;;;;;4995178;28;20040;-74
2022/08/27 12:38:08;;;;;;;4.10;2.78;;;31.50;52.20;;;;;;4995147;28;20030;-74
2022/08/27 12:40:49;;;;;;;7.10;2.60;;;31.40;51.20;;;;;;4994415;28;20472;-74
2022/08/27 12:43:27;;;;;;;4.10;2.80;;;31.40;51.70;;;;;;4995187;28;20061;-74
2022/08/27 12:46:03;;;;;;;4.90;2.80;;;31.30;51.40;;;;;;4994852;28;20031;-74
2022/08/27 12:48:53;;;;;;;6.50;2.95;;;31.30;51.50;;;;;;4994336;28;20436;-74
2022/08/27 12:51:36;;;;;;;2.88;2.25;;;31.10;51.00;;;;;;4994788;28;20022;-75
2022/08/27 12:54:11;;;;;;;4.07;2.47;;;31.00;51.70;;;;;;4994981;28;20041;-75
2022/08/27 12:56:45;;;;;;;6.45;2.95;;;30.90;51.40;;;;;;4994427;28;20030;-74
2022/08/27 12:59:27;;;;;;;4.57;2.92;;;30.80;51.80;;;;;;4994766;28;20034;-75
2022/08/27 13:02:03;;;;;;;5.75;2.92;;;30.80;52.40;;;;;;4994628;28;20038;-74
2022/08/27 13:04:32;;;;;;;5.40;2.80;;;30.70;52.30;;;;;;4994056;28;20033;-74
2022/08/27 13:06:58;;;;;;;3.58;2.95;;;30.70;53.40;;;;;;4994547;28;20088;-74
2022/08/27 13:09:31;;;;;;;3.35;2.75;;;30.70;52.30;;;;;;4994183;28;20456;-73
2022/08/27 13:11:58;;;;;;;3.40;2.70;;;30.60;52.50;;;;;;4994446;28;20042;-76
2022/08/27 13:14:27;;;;;;;3.25;2.65;;;30.60;53.30;;;;;;4994369;28;20030;-76